sensor_id;sensor_type;location;lat;lon;timestamp;P1;durP1;ratioP1;P2;durP2;ratioP2
773;SDS011;370;48.810;9.150;2022-11-13T00:00:02;4.93;;;2.90;;
773;SDS011;370;48.810;9.150;2022-11-13T00:02:31;6.28;;;2.92;;
773;SDS011;370;48.810;9.150;2022-11-13T00:04:58;5.43;;;2.45;;
773;SDS011;370;48.810;9.150;2022-11-13T00:07:25;4.00;;;2.10;;
773;SDS011;370;48.810;9.150;2022-11-13T00:09:53;13.68;;;3.30;;
773;SDS011;370;48.810;9.150;2022-11-13T00:12:19;5.80;;;2.55;;
773;SDS011;370;48.810;9.150;2022-11-13T00:14:48;5.65;;;2.38;;
773;SDS011;370;48.810;9.150;2022-11-13T00:17:15;9.38;;;2.50;;
773;SDS011;370;48.810;9.150;2022-11-13T00:19:42;8.23;;;3.47;;
773;SDS011;370;48.810;9.150;2022-11-13T00:22:09;4.68;;;2.78;;
773;SDS011;370;48.810;9.150;2022-11-13T00:24:36;5.03;;;2.78;;
773;SDS011;370;48.810;9.150;2022-11-13T00:27:03;7.75;;;3.15;;
773;SDS011;370;48.810;9.150;2022-11-13T00:29:29;9.85;;;4.55;;
773;SDS011;370;48.810;9.150;2022-11-13T00:31:57;10.40;;;3.63;;
773;SDS011;370;48.810;9.150;2022-11-13T00:34:24;11.63;;;3.15;;
773;SDS011;370;48.810;9.150;2022-11-13T00:36:51;15.32;;;5.60;;
773;SDS011;370;48.810;9.150;2022-11-13T00:39:18;8.98;;;3.90;;
773;SDS011;370;48.810;9.150;2022-11-13T00:41:44;5.45;;;3.35;;
773;SDS011;370;48.810;9.150;2022-11-13T00:44:11;6.43;;;3.70;;
773;SDS011;370;48.810;9.150;2022-11-13T00:46:38;7.25;;;3.75;;
773;SDS011;370;48.810;9.150;2022-11-13T00:49:06;7.80;;;4.13;;
773;SDS011;370;48.810;9.150;2022-11-13T00:51:33;11.85;;;3.85;;
773;SDS011;370;48.810;9.150;2022-11-13T00:54:00;6.82;;;3.10;;
773;SDS011;370;48.810;9.150;2022-11-13T00:56:27;6.57;;;3.00;;
773;SDS011;370;48.810;9.150;2022-11-13T00:58:54;2.97;;;2.05;;
773;SDS011;370;48.810;9.150;2022-11-13T01:01:21;6.88;;;3.70;;
773;SDS011;370;48.810;9.150;2022-11-13T01:03:48;14.57;;;4.45;;
773;SDS011;370;48.810;9.150;2022-11-13T01:06:17;8.10;;;3.42;;
773;SDS011;370;48.810;9.150;2022-11-13T01:08:45;3.45;;;2.40;;
773;SDS011;370;48.810;9.150;2022-11-13T01:11:13;5.25;;;2.53;;
773;SDS011;370;48.810;9.150;2022-11-13T01:13:42;8.85;;;3.47;;
773;SDS011;370;48.810;9.150;2022-11-13T01:16:11;8.18;;;3.72;;
773;SDS011;370;48.810;9.150;2022-11-13T01:18:39;9.45;;;2.60;;
773;SDS011;370;48.810;9.150;2022-11-13T01:21:07;4.32;;;3.10;;
773;SDS011;370;48.810;9.150;2022-11-13T01:23:37;8.35;;;5.10;;
773;SDS011;370;48.810;9.150;2022-11-13T01:26:05;11.13;;;4.03;;
773;SDS011;370;48.810;9.150;2022-11-13T01:28:34;5.63;;;3.47;;
773;SDS011;370;48.810;9.150;2022-11-13T01:31:03;5.55;;;3.00;;
773;SDS011;370;48.810;9.150;2022-11-13T01:33:30;5.43;;;3.40;;
773;SDS011;370;48.810;9.150;2022-11-13T01:36:00;10.80;;;3.63;;
773;SDS011;370;48.810;9.150;2022-11-13T01:38:29;10.80;;;3.22;;
773;SDS011;370;48.810;9.150;2022-11-13T01:40:58;6.63;;;2.55;;
773;SDS011;370;48.810;9.150;2022-11-13T01:43:25;6.55;;;3.70;;
773;SDS011;370;48.810;9.150;2022-11-13T01:46:01;6.00;;;3.17;;
773;SDS011;370;48.810;9.150;2022-11-13T01:48:43;8.68;;;2.65;;
773;SDS011;370;48.810;9.150;2022-11-13T01:51:13;11.52;;;4.35;;
773;SDS011;370;48.810;9.150;2022-11-13T01:53:47;5.70;;;2.70;;
773;SDS011;370;48.810;9.150;2022-11-13T01:56:16;11.20;;;2.38;;
773;SDS011;370;48.810;9.150;2022-11-13T01:58:44;5.53;;;3.22;;
773;SDS011;370;48.810;9.150;2022-11-13T02:01:14;6.22;;;3.58;;
773;SDS011;370;48.810;9.150;2022-11-13T02:03:40;8.15;;;3.47;;
773;SDS011;370;48.810;9.150;2022-11-13T02:06:07;7.45;;;2.90;;
773;SDS011;370;48.810;9.150;2022-11-13T02:08:34;9.02;;;3.17;;
773;SDS011;370;48.810;9.150;2022-11-13T02:11:01;12.00;;;3.13;;
773;SDS011;370;48.810;9.150;2022-11-13T02:13:29;6.50;;;3.90;;
773;SDS011;370;48.810;9.150;2022-11-13T02:15:56;13.65;;;3.47;;
773;SDS011;370;48.810;9.150;2022-11-13T02:18:23;9.98;;;3.67;;
773;SDS011;370;48.810;9.150;2022-11-13T02:20:55;10.93;;;3.70;;
773;SDS011;370;48.810;9.150;2022-11-13T02:23:30;5.70;;;2.97;;
773;SDS011;370;48.810;9.150;2022-11-13T02:26:06;8.48;;;3.50;;
773;SDS011;370;48.810;9.150;2022-11-13T02:28:35;4.80;;;2.80;;
773;SDS011;370;48.810;9.150;2022-11-13T02:31:06;4.90;;;2.95;;
773;SDS011;370;48.810;9.150;2022-11-13T02:33:34;3.28;;;2.38;;
773;SDS011;370;48.810;9.150;2022-11-13T02:36:01;5.43;;;2.83;;
773;SDS011;370;48.810;9.150;2022-11-13T02:38:29;5.35;;;2.78;;
773;SDS011;370;48.810;9.150;2022-11-13T02:40:57;9.57;;;4.03;;
773;SDS011;370;48.810;9.150;2022-11-13T02:43:25;3.78;;;2.47;;
773;SDS011;370;48.810;9.150;2022-11-13T02:45:53;8.30;;;3.25;;
773;SDS011;370;48.810;9.150;2022-11-13T02:48:19;3.72;;;2.15;;
773;SDS011;370;48.810;9.150;2022-11-13T02:50:46;3.33;;;2.60;;
773;SDS011;370;48.810;9.150;2022-11-13T02:53:13;20.95;;;3.95;;
773;SDS011;370;48.810;9.150;2022-11-13T02:55:40;5.55;;;2.45;;
773;SDS011;370;48.810;9.150;2022-11-13T02:58:07;10.95;;;3.75;;
773;SDS011;370;48.810;9.150;2022-11-13T03:00:35;4.35;;;2.15;;
773;SDS011;370;48.810;9.150;2022-11-13T03:03:02;3.85;;;2.38;;
773;SDS011;370;48.810;9.150;2022-11-13T03:05:29;4.30;;;3.17;;
773;SDS011;370;48.810;9.150;2022-11-13T03:07:55;8.77;;;3.55;;
773;SDS011;370;48.810;9.150;2022-11-13T03:10:22;10.00;;;4.93;;
773;SDS011;370;48.810;9.150;2022-11-13T03:12:49;2.70;;;2.10;;
773;SDS011;370;48.810;9.150;2022-11-13T03:15:16;6.80;;;3.25;;
773;SDS011;370;48.810;9.150;2022-11-13T03:17:44;9.85;;;3.40;;
773;SDS011;370;48.810;9.150;2022-11-13T03:20:11;4.00;;;2.15;;
773;SDS011;370;48.810;9.150;2022-11-13T03:22:38;8.48;;;3.15;;
773;SDS011;370;48.810;9.150;2022-11-13T03:25:05;4.35;;;2.40;;
773;SDS011;370;48.810;9.150;2022-11-13T03:27:32;4.82;;;3.38;;
773;SDS011;370;48.810;9.150;2022-11-13T03:29:59;5.18;;;3.50;;
773;SDS011;370;48.810;9.150;2022-11-13T03:32:26;6.85;;;3.05;;
773;SDS011;370;48.810;9.150;2022-11-13T03:34:54;4.28;;;3.15;;
773;SDS011;370;48.810;9.150;2022-11-13T03:37:21;8.32;;;2.67;;
773;SDS011;370;48.810;9.150;2022-11-13T03:39:48;7.38;;;2.67;;
773;SDS011;370;48.810;9.150;2022-11-13T03:42:14;9.50;;;4.10;;
773;SDS011;370;48.810;9.150;2022-11-13T03:44:41;18.05;;;4.43;;
773;SDS011;370;48.810;9.150;2022-11-13T03:47:08;24.85;;;6.07;;
773;SDS011;370;48.810;9.150;2022-11-13T03:49:34;5.78;;;3.67;;
773;SDS011;370;48.810;9.150;2022-11-13T03:52:03;3.55;;;2.45;;
773;SDS011;370;48.810;9.150;2022-11-13T03:54:30;5.50;;;2.03;;
773;SDS011;370;48.810;9.150;2022-11-13T03:56:56;11.85;;;3.78;;
773;SDS011;370;48.810;9.150;2022-11-13T03:59:23;7.68;;;2.97;;
773;SDS011;370;48.810;9.150;2022-11-13T04:01:50;10.10;;;4.00;;
773;SDS011;370;48.810;9.150;2022-11-13T04:04:17;4.30;;;2.38;;
773;SDS011;370;48.810;9.150;2022-11-13T04:06:44;5.68;;;2.88;;
773;SDS011;370;48.810;9.150;2022-11-13T04:09:12;8.10;;;3.85;;
773;SDS011;370;48.810;9.150;2022-11-13T04:11:39;3.97;;;2.78;;
773;SDS011;370;48.810;9.150;2022-11-13T04:14:05;4.53;;;2.70;;
773;SDS011;370;48.810;9.150;2022-11-13T04:16:32;5.85;;;2.58;;
773;SDS011;370;48.810;9.150;2022-11-13T04:18:59;8.90;;;3.65;;
773;SDS011;370;48.810;9.150;2022-11-13T04:21:26;2.40;;;2.03;;
773;SDS011;370;48.810;9.150;2022-11-13T04:23:53;7.00;;;3.55;;
773;SDS011;370;48.810;9.150;2022-11-13T04:26:21;4.50;;;2.63;;
773;SDS011;370;48.810;9.150;2022-11-13T04:28:48;4.85;;;2.55;;
773;SDS011;370;48.810;9.150;2022-11-13T04:31:15;5.15;;;2.33;;
773;SDS011;370;48.810;9.150;2022-11-13T04:33:42;4.45;;;2.22;;
773;SDS011;370;48.810;9.150;2022-11-13T04:36:09;6.90;;;3.47;;
773;SDS011;370;48.810;9.150;2022-11-13T04:38:36;5.53;;;3.25;;
773;SDS011;370;48.810;9.150;2022-11-13T04:41:02;5.72;;;2.45;;
773;SDS011;370;48.810;9.150;2022-11-13T04:43:48;14.93;;;3.28;;
773;SDS011;370;48.810;9.150;2022-11-13T04:46:15;8.95;;;2.22;;
773;SDS011;370;48.810;9.150;2022-11-13T04:48:42;3.13;;;2.45;;
773;SDS011;370;48.810;9.150;2022-11-13T04:51:09;3.70;;;2.40;;
773;SDS011;370;48.810;9.150;2022-11-13T04:53:38;5.15;;;3.40;;
773;SDS011;370;48.810;9.150;2022-11-13T04:56:05;3.42;;;2.10;;
773;SDS011;370;48.810;9.150;2022-11-13T04:58:32;8.45;;;2.47;;
773;SDS011;370;48.810;9.150;2022-11-13T05:01:00;3.80;;;2.15;;
773;SDS011;370;48.810;9.150;2022-11-13T05:03:28;7.93;;;2.78;;
773;SDS011;370;48.810;9.150;2022-11-13T05:06:00;3.28;;;1.85;;
773;SDS011;370;48.810;9.150;2022-11-13T05:08:27;3.50;;;2.15;;
773;SDS011;370;48.810;9.150;2022-11-13T05:10:54;5.22;;;2.72;;
773;SDS011;370;48.810;9.150;2022-11-13T05:13:20;6.18;;;1.77;;
773;SDS011;370;48.810;9.150;2022-11-13T05:15:47;7.07;;;2.53;;
773;SDS011;370;48.810;9.150;2022-11-13T05:18:15;10.68;;;3.20;;
773;SDS011;370;48.810;9.150;2022-11-13T05:20:43;3.97;;;1.65;;
773;SDS011;370;48.810;9.150;2022-11-13T05:23:09;7.18;;;2.60;;
773;SDS011;370;48.810;9.150;2022-11-13T05:25:36;2.95;;;1.60;;
773;SDS011;370;48.810;9.150;2022-11-13T05:28:03;3.78;;;1.80;;
773;SDS011;370;48.810;9.150;2022-11-13T05:30:30;5.25;;;2.33;;
773;SDS011;370;48.810;9.150;2022-11-13T05:32:57;6.13;;;3.30;;
773;SDS011;370;48.810;9.150;2022-11-13T05:35:25;13.07;;;3.58;;
773;SDS011;370;48.810;9.150;2022-11-13T05:37:52;4.47;;;2.08;;
773;SDS011;370;48.810;9.150;2022-11-13T05:40:18;3.03;;;1.65;;
773;SDS011;370;48.810;9.150;2022-11-13T05:42:45;10.75;;;3.22;;
773;SDS011;370;48.810;9.150;2022-11-13T05:45:12;8.07;;;2.92;;
773;SDS011;370;48.810;9.150;2022-11-13T05:47:39;2.67;;;1.75;;
773;SDS011;370;48.810;9.150;2022-11-13T05:50:06;5.10;;;2.80;;
773;SDS011;370;48.810;9.150;2022-11-13T05:52:34;4.90;;;1.85;;
773;SDS011;370;48.810;9.150;2022-11-13T05:55:01;6.65;;;3.05;;
773;SDS011;370;48.810;9.150;2022-11-13T05:57:28;4.20;;;2.03;;
773;SDS011;370;48.810;9.150;2022-11-13T05:59:55;7.60;;;3.20;;
773;SDS011;370;48.810;9.150;2022-11-13T06:02:21;5.88;;;1.90;;
773;SDS011;370;48.810;9.150;2022-11-13T06:04:48;5.57;;;2.97;;
773;SDS011;370;48.810;9.150;2022-11-13T06:07:15;16.10;;;3.25;;
773;SDS011;370;48.810;9.150;2022-11-13T06:09:43;6.93;;;3.40;;
773;SDS011;370;48.810;9.150;2022-11-13T06:12:10;2.95;;;2.05;;
773;SDS011;370;48.810;9.150;2022-11-13T06:14:36;6.13;;;3.03;;
773;SDS011;370;48.810;9.150;2022-11-13T06:17:03;7.55;;;4.10;;
773;SDS011;370;48.810;9.150;2022-11-13T06:19:30;8.30;;;3.22;;
773;SDS011;370;48.810;9.150;2022-11-13T06:21:57;5.20;;;3.25;;
773;SDS011;370;48.810;9.150;2022-11-13T06:24:23;4.97;;;2.88;;
773;SDS011;370;48.810;9.150;2022-11-13T06:26:52;4.53;;;2.80;;
773;SDS011;370;48.810;9.150;2022-11-13T06:29:18;7.00;;;2.80;;
773;SDS011;370;48.810;9.150;2022-11-13T06:31:45;2.20;;;2.00;;
773;SDS011;370;48.810;9.150;2022-11-13T06:34:12;9.98;;;2.10;;
773;SDS011;370;48.810;9.150;2022-11-13T06:36:39;2.78;;;1.52;;
773;SDS011;370;48.810;9.150;2022-11-13T06:39:06;4.30;;;2.53;;
773;SDS011;370;48.810;9.150;2022-11-13T06:41:34;12.70;;;2.72;;
773;SDS011;370;48.810;9.150;2022-11-13T06:44:04;8.07;;;2.65;;
773;SDS011;370;48.810;9.150;2022-11-13T06:46:30;8.35;;;3.90;;
773;SDS011;370;48.810;9.150;2022-11-13T06:48:57;5.88;;;2.88;;
773;SDS011;370;48.810;9.150;2022-11-13T06:51:25;5.00;;;2.63;;
773;SDS011;370;48.810;9.150;2022-11-13T06:53:54;8.75;;;3.75;;
773;SDS011;370;48.810;9.150;2022-11-13T06:56:21;3.45;;;2.63;;
773;SDS011;370;48.810;9.150;2022-11-13T06:58:48;4.45;;;1.80;;
773;SDS011;370;48.810;9.150;2022-11-13T07:01:16;3.30;;;2.22;;
773;SDS011;370;48.810;9.150;2022-11-13T07:03:45;4.53;;;1.90;;
773;SDS011;370;48.810;9.150;2022-11-13T07:06:13;4.07;;;1.90;;
773;SDS011;370;48.810;9.150;2022-11-13T07:08:41;5.32;;;1.73;;
773;SDS011;370;48.810;9.150;2022-11-13T07:11:10;4.15;;;3.13;;
773;SDS011;370;48.810;9.150;2022-11-13T07:13:39;2.15;;;1.80;;
773;SDS011;370;48.810;9.150;2022-11-13T07:16:06;4.75;;;2.58;;
773;SDS011;370;48.810;9.150;2022-11-13T07:18:36;2.65;;;2.15;;
773;SDS011;370;48.810;9.150;2022-11-13T07:21:03;16.40;;;3.30;;
773;SDS011;370;48.810;9.150;2022-11-13T07:23:31;4.65;;;2.60;;
773;SDS011;370;48.810;9.150;2022-11-13T07:25:58;6.25;;;3.10;;
773;SDS011;370;48.810;9.150;2022-11-13T07:28:25;4.47;;;2.05;;
773;SDS011;370;48.810;9.150;2022-11-13T07:30:52;4.47;;;3.00;;
773;SDS011;370;48.810;9.150;2022-11-13T07:33:21;10.18;;;3.45;;
773;SDS011;370;48.810;9.150;2022-11-13T07:35:51;4.55;;;2.10;;
773;SDS011;370;48.810;9.150;2022-11-13T07:38:21;4.70;;;2.75;;
773;SDS011;370;48.810;9.150;2022-11-13T07:40:49;3.65;;;2.95;;
773;SDS011;370;48.810;9.150;2022-11-13T07:43:16;5.00;;;2.50;;
773;SDS011;370;48.810;9.150;2022-11-13T07:45:43;10.07;;;4.70;;
773;SDS011;370;48.810;9.150;2022-11-13T07:48:10;4.03;;;2.65;;
773;SDS011;370;48.810;9.150;2022-11-13T07:50:37;4.85;;;2.88;;
773;SDS011;370;48.810;9.150;2022-11-13T07:53:06;6.30;;;2.22;;
773;SDS011;370;48.810;9.150;2022-11-13T07:55:34;5.63;;;2.38;;
773;SDS011;370;48.810;9.150;2022-11-13T07:58:01;4.70;;;2.67;;
773;SDS011;370;48.810;9.150;2022-11-13T08:00:29;3.90;;;2.17;;
773;SDS011;370;48.810;9.150;2022-11-13T08:02:57;3.47;;;2.13;;
773;SDS011;370;48.810;9.150;2022-11-13T08:05:25;3.92;;;2.83;;
773;SDS011;370;48.810;9.150;2022-11-13T08:07:52;7.70;;;3.88;;
773;SDS011;370;48.810;9.150;2022-11-13T08:10:20;3.10;;;2.70;;
773;SDS011;370;48.810;9.150;2022-11-13T08:12:47;3.50;;;2.45;;
773;SDS011;370;48.810;9.150;2022-11-13T08:15:14;3.22;;;2.90;;
773;SDS011;370;48.810;9.150;2022-11-13T08:17:41;6.65;;;3.22;;
773;SDS011;370;48.810;9.150;2022-11-13T08:20:08;6.00;;;2.65;;
773;SDS011;370;48.810;9.150;2022-11-13T08:22:36;2.90;;;2.70;;
773;SDS011;370;48.810;9.150;2022-11-13T08:25:03;3.15;;;1.83;;
773;SDS011;370;48.810;9.150;2022-11-13T08:27:31;7.78;;;2.83;;
773;SDS011;370;48.810;9.150;2022-11-13T08:29:58;7.68;;;3.80;;
773;SDS011;370;48.810;9.150;2022-11-13T08:32:25;6.05;;;3.40;;
773;SDS011;370;48.810;9.150;2022-11-13T08:34:52;6.43;;;2.92;;
773;SDS011;370;48.810;9.150;2022-11-13T08:37:19;5.07;;;2.85;;
773;SDS011;370;48.810;9.150;2022-11-13T08:39:46;4.07;;;2.47;;
773;SDS011;370;48.810;9.150;2022-11-13T08:42:12;4.22;;;2.83;;
773;SDS011;370;48.810;9.150;2022-11-13T08:44:40;6.47;;;3.20;;
773;SDS011;370;48.810;9.150;2022-11-13T08:47:07;7.43;;;3.45;;
773;SDS011;370;48.810;9.150;2022-11-13T08:49:34;6.78;;;2.40;;
773;SDS011;370;48.810;9.150;2022-11-13T08:52:01;7.00;;;3.22;;
773;SDS011;370;48.810;9.150;2022-11-13T08:54:28;7.53;;;3.22;;
773;SDS011;370;48.810;9.150;2022-11-13T08:56:55;5.93;;;3.17;;
773;SDS011;370;48.810;9.150;2022-11-13T08:59:22;7.15;;;2.83;;
773;SDS011;370;48.810;9.150;2022-11-13T09:01:50;5.03;;;3.13;;
773;SDS011;370;48.810;9.150;2022-11-13T09:04:22;13.15;;;3.28;;
773;SDS011;370;48.810;9.150;2022-11-13T09:06:49;5.05;;;2.65;;
773;SDS011;370;48.810;9.150;2022-11-13T09:09:15;9.98;;;3.63;;
773;SDS011;370;48.810;9.150;2022-11-13T09:11:42;5.82;;;3.35;;
773;SDS011;370;48.810;9.150;2022-11-13T09:14:09;10.65;;;3.90;;
773;SDS011;370;48.810;9.150;2022-11-13T09:16:36;11.40;;;3.97;;
773;SDS011;370;48.810;9.150;2022-11-13T09:19:04;11.40;;;4.20;;
773;SDS011;370;48.810;9.150;2022-11-13T09:21:31;5.40;;;3.33;;
773;SDS011;370;48.810;9.150;2022-11-13T09:23:58;5.13;;;3.38;;
773;SDS011;370;48.810;9.150;2022-11-13T09:26:25;7.97;;;3.92;;
773;SDS011;370;48.810;9.150;2022-11-13T09:28:52;8.63;;;3.70;;
773;SDS011;370;48.810;9.150;2022-11-13T09:31:19;3.55;;;2.90;;
773;SDS011;370;48.810;9.150;2022-11-13T09:33:46;5.57;;;3.80;;
773;SDS011;370;48.810;9.150;2022-11-13T09:36:14;9.82;;;3.75;;
773;SDS011;370;48.810;9.150;2022-11-13T09:38:41;7.40;;;3.60;;
773;SDS011;370;48.810;9.150;2022-11-13T09:41:09;10.88;;;5.07;;
773;SDS011;370;48.810;9.150;2022-11-13T09:43:38;13.60;;;4.20;;
773;SDS011;370;48.810;9.150;2022-11-13T09:46:10;6.35;;;3.83;;
773;SDS011;370;48.810;9.150;2022-11-13T09:48:43;10.80;;;3.80;;
773;SDS011;370;48.810;9.150;2022-11-13T09:51:17;9.50;;;4.50;;
773;SDS011;370;48.810;9.150;2022-11-13T09:53:46;8.65;;;4.60;;
773;SDS011;370;48.810;9.150;2022-11-13T09:56:16;9.70;;;4.63;;
773;SDS011;370;48.810;9.150;2022-11-13T09:58:51;7.60;;;4.50;;
773;SDS011;370;48.810;9.150;2022-11-13T10:01:25;8.60;;;4.77;;
773;SDS011;370;48.810;9.150;2022-11-13T10:03:59;6.83;;;4.53;;
773;SDS011;370;48.810;9.150;2022-11-13T10:06:35;6.90;;;4.23;;
773;SDS011;370;48.810;9.150;2022-11-13T10:09:18;8.30;;;4.57;;
773;SDS011;370;48.810;9.150;2022-11-13T10:11:49;8.03;;;4.67;;
773;SDS011;370;48.810;9.150;2022-11-13T10:14:20;8.00;;;4.30;;
773;SDS011;370;48.810;9.150;2022-11-13T10:16:52;5.47;;;4.27;;
773;SDS011;370;48.810;9.150;2022-11-13T10:19:24;7.43;;;5.30;;
773;SDS011;370;48.810;9.150;2022-11-13T10:21:57;5.83;;;4.20;;
773;SDS011;370;48.810;9.150;2022-11-13T10:24:28;7.80;;;4.63;;
773;SDS011;370;48.810;9.150;2022-11-13T10:27:04;8.10;;;4.40;;
773;SDS011;370;48.810;9.150;2022-11-13T10:29:34;8.43;;;5.03;;
773;SDS011;370;48.810;9.150;2022-11-13T10:32:12;6.40;;;4.80;;
773;SDS011;370;48.810;9.150;2022-11-13T10:34:42;6.60;;;4.80;;
773;SDS011;370;48.810;9.150;2022-11-13T10:37:26;6.20;;;4.50;;
773;SDS011;370;48.810;9.150;2022-11-13T10:39:59;5.00;;;4.17;;
773;SDS011;370;48.810;9.150;2022-11-13T10:42:27;7.07;;;5.13;;
773;SDS011;370;48.810;9.150;2022-11-13T10:44:55;6.07;;;4.90;;
773;SDS011;370;48.810;9.150;2022-11-13T10:47:24;7.10;;;4.73;;
773;SDS011;370;48.810;9.150;2022-11-13T10:49:53;5.40;;;4.77;;
773;SDS011;370;48.810;9.150;2022-11-13T10:52:22;7.47;;;5.67;;
773;SDS011;370;48.810;9.150;2022-11-13T10:55:03;7.13;;;5.00;;
773;SDS011;370;48.810;9.150;2022-11-13T10:57:37;7.40;;;5.37;;
773;SDS011;370;48.810;9.150;2022-11-13T11:00:17;7.10;;;5.90;;
773;SDS011;370;48.810;9.150;2022-11-13T11:02:47;8.50;;;6.23;;
773;SDS011;370;48.810;9.150;2022-11-13T11:05:15;8.40;;;6.20;;
773;SDS011;370;48.810;9.150;2022-11-13T11:07:43;7.50;;;5.40;;
773;SDS011;370;48.810;9.150;2022-11-13T11:10:19;8.10;;;5.93;;
773;SDS011;370;48.810;9.150;2022-11-13T11:12:58;10.50;;;5.63;;
773;SDS011;370;48.810;9.150;2022-11-13T11:15:28;7.80;;;5.33;;
773;SDS011;370;48.810;9.150;2022-11-13T11:18:13;6.57;;;5.87;;
773;SDS011;370;48.810;9.150;2022-11-13T11:20:48;8.80;;;6.13;;
773;SDS011;370;48.810;9.150;2022-11-13T11:23:20;7.73;;;5.33;;
773;SDS011;370;48.810;9.150;2022-11-13T11:25:52;5.50;;;4.67;;
773;SDS011;370;48.810;9.150;2022-11-13T11:28:28;8.63;;;5.60;;
773;SDS011;370;48.810;9.150;2022-11-13T11:31:00;4.97;;;4.57;;
773;SDS011;370;48.810;9.150;2022-11-13T11:33:34;6.57;;;4.63;;
773;SDS011;370;48.810;9.150;2022-11-13T11:36:06;5.30;;;4.73;;
773;SDS011;370;48.810;9.150;2022-11-13T11:38:41;7.47;;;5.23;;
773;SDS011;370;48.810;9.150;2022-11-13T11:41:16;6.90;;;5.20;;
773;SDS011;370;48.810;9.150;2022-11-13T11:43:46;5.77;;;4.70;;
773;SDS011;370;48.810;9.150;2022-11-13T11:46:22;7.70;;;5.47;;
773;SDS011;370;48.810;9.150;2022-11-13T11:48:49;8.30;;;6.03;;
773;SDS011;370;48.810;9.150;2022-11-13T11:51:25;9.13;;;6.40;;
773;SDS011;370;48.810;9.150;2022-11-13T11:53:57;10.20;;;6.23;;
773;SDS011;370;48.810;9.150;2022-11-13T11:56:38;9.80;;;6.20;;
773;SDS011;370;48.810;9.150;2022-11-13T11:59:12;9.83;;;6.03;;
773;SDS011;370;48.810;9.150;2022-11-13T12:02:00;9.87;;;6.30;;
773;SDS011;370;48.810;9.150;2022-11-13T12:05:11;8.53;;;6.00;;
773;SDS011;370;48.810;9.150;2022-11-13T12:07:44;9.80;;;6.17;;
773;SDS011;370;48.810;9.150;2022-11-13T12:10:23;8.03;;;5.73;;
773;SDS011;370;48.810;9.150;2022-11-13T12:12:58;8.73;;;6.00;;
773;SDS011;370;48.810;9.150;2022-11-13T12:15:37;9.33;;;6.00;;
773;SDS011;370;48.810;9.150;2022-11-13T12:18:12;8.43;;;6.50;;
773;SDS011;370;48.810;9.150;2022-11-13T12:20:46;7.00;;;5.60;;
773;SDS011;370;48.810;9.150;2022-11-13T12:23:33;11.63;;;6.30;;
773;SDS011;370;48.810;9.150;2022-11-13T12:26:09;8.20;;;6.37;;
773;SDS011;370;48.810;9.150;2022-11-13T12:28:46;10.50;;;6.03;;
773;SDS011;370;48.810;9.150;2022-11-13T12:31:19;7.47;;;5.70;;
773;SDS011;370;48.810;9.150;2022-11-13T12:34:03;8.33;;;5.47;;
773;SDS011;370;48.810;9.150;2022-11-13T12:36:35;7.47;;;4.90;;
773;SDS011;370;48.810;9.150;2022-11-13T12:39:04;6.87;;;4.03;;
773;SDS011;370;48.810;9.150;2022-11-13T12:41:40;6.97;;;4.33;;
773;SDS011;370;48.810;9.150;2022-11-13T12:44:16;9.80;;;4.53;;
773;SDS011;370;48.810;9.150;2022-11-13T12:46:48;8.20;;;4.30;;
773;SDS011;370;48.810;9.150;2022-11-13T12:49:24;8.40;;;4.73;;
773;SDS011;370;48.810;9.150;2022-11-13T12:51:57;7.30;;;3.90;;
773;SDS011;370;48.810;9.150;2022-11-13T12:54:26;5.57;;;3.63;;
773;SDS011;370;48.810;9.150;2022-11-13T12:57:03;6.70;;;3.77;;
773;SDS011;370;48.810;9.150;2022-11-13T12:59:47;4.83;;;3.23;;
773;SDS011;370;48.810;9.150;2022-11-13T13:05:12;7.20;;;3.47;;
773;SDS011;370;48.810;9.150;2022-11-13T13:07:52;8.43;;;4.00;;
773;SDS011;370;48.810;9.150;2022-11-13T13:10:40;6.90;;;3.45;;
773;SDS011;370;48.810;9.150;2022-11-13T13:13:16;6.63;;;4.15;;
773;SDS011;370;48.810;9.150;2022-11-13T13:15:53;5.78;;;3.40;;
773;SDS011;370;48.810;9.150;2022-11-13T13:18:26;6.35;;;3.10;;
773;SDS011;370;48.810;9.150;2022-11-13T13:20:59;8.63;;;3.20;;
773;SDS011;370;48.810;9.150;2022-11-13T13:23:31;8.50;;;3.75;;
773;SDS011;370;48.810;9.150;2022-11-13T13:26:04;6.18;;;3.42;;
773;SDS011;370;48.810;9.150;2022-11-13T13:28:39;5.15;;;3.15;;
773;SDS011;370;48.810;9.150;2022-11-13T13:31:12;4.05;;;2.50;;
773;SDS011;370;48.810;9.150;2022-11-13T13:33:50;5.40;;;3.10;;
773;SDS011;370;48.810;9.150;2022-11-13T13:36:29;5.50;;;3.40;;
773;SDS011;370;48.810;9.150;2022-11-13T13:39:04;6.80;;;2.97;;
773;SDS011;370;48.810;9.150;2022-11-13T13:41:43;6.53;;;2.70;;
773;SDS011;370;48.810;9.150;2022-11-13T13:44:27;4.45;;;2.90;;
773;SDS011;370;48.810;9.150;2022-11-13T13:47:08;5.55;;;3.30;;
773;SDS011;370;48.810;9.150;2022-11-13T13:49:39;5.22;;;3.22;;
773;SDS011;370;48.810;9.150;2022-11-13T13:52:10;6.72;;;3.60;;
773;SDS011;370;48.810;9.150;2022-11-13T13:54:40;5.85;;;3.47;;
773;SDS011;370;48.810;9.150;2022-11-13T13:57:10;8.70;;;3.05;;
773;SDS011;370;48.810;9.150;2022-11-13T13:59:39;6.75;;;3.25;;
773;SDS011;370;48.810;9.150;2022-11-13T14:02:14;6.72;;;3.10;;
773;SDS011;370;48.810;9.150;2022-11-13T14:04:42;6.15;;;2.67;;
773;SDS011;370;48.810;9.150;2022-11-13T14:07:18;5.05;;;2.63;;
773;SDS011;370;48.810;9.150;2022-11-13T14:09:47;5.38;;;2.90;;
773;SDS011;370;48.810;9.150;2022-11-13T14:12:17;5.75;;;3.25;;
773;SDS011;370;48.810;9.150;2022-11-13T14:14:46;5.47;;;3.20;;
773;SDS011;370;48.810;9.150;2022-11-13T14:17:21;6.45;;;3.65;;
773;SDS011;370;48.810;9.150;2022-11-13T14:19:49;8.88;;;3.70;;
773;SDS011;370;48.810;9.150;2022-11-13T14:22:17;4.35;;;3.20;;
773;SDS011;370;48.810;9.150;2022-11-13T14:24:46;6.28;;;3.67;;
773;SDS011;370;48.810;9.150;2022-11-13T14:27:17;8.15;;;3.70;;
773;SDS011;370;48.810;9.150;2022-11-13T14:29:46;8.77;;;3.50;;
773;SDS011;370;48.810;9.150;2022-11-13T14:32:15;4.88;;;2.83;;
773;SDS011;370;48.810;9.150;2022-11-13T14:34:47;6.43;;;2.65;;
773;SDS011;370;48.810;9.150;2022-11-13T14:37:20;6.45;;;4.28;;
773;SDS011;370;48.810;9.150;2022-11-13T14:39:49;7.68;;;3.75;;
773;SDS011;370;48.810;9.150;2022-11-13T14:42:17;8.32;;;4.45;;
773;SDS011;370;48.810;9.150;2022-11-13T14:44:46;7.65;;;3.50;;
773;SDS011;370;48.810;9.150;2022-11-13T14:47:20;7.88;;;3.45;;
773;SDS011;370;48.810;9.150;2022-11-13T14:49:50;7.57;;;3.78;;
773;SDS011;370;48.810;9.150;2022-11-13T14:52:21;9.05;;;4.43;;
773;SDS011;370;48.810;9.150;2022-11-13T14:54:59;9.43;;;3.45;;
773;SDS011;370;48.810;9.150;2022-11-13T14:57:27;8.25;;;3.05;;
773;SDS011;370;48.810;9.150;2022-11-13T14:59:54;5.55;;;3.45;;
773;SDS011;370;48.810;9.150;2022-11-13T15:02:21;8.25;;;4.18;;
773;SDS011;370;48.810;9.150;2022-11-13T15:04:48;8.15;;;5.00;;
773;SDS011;370;48.810;9.150;2022-11-13T15:07:19;7.57;;;4.32;;
773;SDS011;370;48.810;9.150;2022-11-13T15:09:51;12.27;;;5.00;;
773;SDS011;370;48.810;9.150;2022-11-13T15:12:18;9.90;;;4.35;;
773;SDS011;370;48.810;9.150;2022-11-13T15:14:45;10.20;;;4.72;;
773;SDS011;370;48.810;9.150;2022-11-13T15:17:13;12.13;;;4.18;;
773;SDS011;370;48.810;9.150;2022-11-13T15:19:42;7.38;;;3.83;;
773;SDS011;370;48.810;9.150;2022-11-13T15:22:10;10.30;;;5.45;;
773;SDS011;370;48.810;9.150;2022-11-13T15:24:39;16.95;;;5.15;;
773;SDS011;370;48.810;9.150;2022-11-13T15:27:07;16.65;;;5.43;;
773;SDS011;370;48.810;9.150;2022-11-13T15:29:38;5.43;;;3.20;;
773;SDS011;370;48.810;9.150;2022-11-13T15:32:04;14.43;;;3.70;;
773;SDS011;370;48.810;9.150;2022-11-13T15:34:34;8.18;;;4.38;;
773;SDS011;370;48.810;9.150;2022-11-13T15:37:01;6.57;;;3.70;;
773;SDS011;370;48.810;9.150;2022-11-13T15:39:34;8.18;;;3.85;;
773;SDS011;370;48.810;9.150;2022-11-13T15:42:02;9.02;;;4.18;;
773;SDS011;370;48.810;9.150;2022-11-13T15:44:32;7.40;;;3.28;;
773;SDS011;370;48.810;9.150;2022-11-13T15:46:58;11.30;;;3.97;;
773;SDS011;370;48.810;9.150;2022-11-13T15:49:25;4.35;;;3.15;;
773;SDS011;370;48.810;9.150;2022-11-13T15:51:52;7.72;;;3.80;;
773;SDS011;370;48.810;9.150;2022-11-13T15:54:21;4.63;;;3.65;;
773;SDS011;370;48.810;9.150;2022-11-13T15:56:52;5.50;;;3.45;;
773;SDS011;370;48.810;9.150;2022-11-13T15:59:20;7.80;;;3.75;;